Time;durP1;ratioP1;P1;durP2;ratioP2;P2;SDS_P1;SDS_P2;PMS_P1;PMS_P2;Temp;Humidity;BMP_temperature;BMP_pressure;BME280_temperature;BME280_humidity;BME280_pressure;Samples;Min_cycle;Max_cycle;Signal;HPM_P1;HPM_P2
2020/12/24 00:00:05;;;;;;;16.93;9.08;;;;;;;3.71;70.84;100668.06;1682750;84;21581;-59
2020/12/24 00:02:35;;;;;;;15.50;8.83;;;;;;;3.72;70.80;100661.64;1697253;83;21082;-57
2020/12/24 00:05:03;;;;;;;15.63;9.80;;;;;;;3.71;70.66;100670.23;1682886;85;22058;-57
2020/12/24 00:07:30;;;;;;;16.45;9.33;;;;;;;3.70;70.68;100677.16;1697634;83;21170;-57
2020/12/24 00:09:58;;;;;;;16.15;9.55;;;;;;;3.71;70.66;100674.80;1697563;84;21453;-56
2020/12/24 00:12:25;;;;;;;17.10;10.18;;;;;;;3.73;70.72;100664.63;1682864;84;21992;-56
2020/12/24 00:14:53;;;;;;;16.73;9.75;;;;;;;3.75;70.64;100660.70;1697608;83;21117;-57
2020/12/24 00:17:21;;;;;;;13.75;7.58;;;;;;;3.72;70.64;100659.77;1697569;83;21139;-56
2020/12/24 00:19:49;;;;;;;14.20;7.85;;;;;;;3.74;70.72;100664.94;1682909;84;21111;-57
2020/12/24 00:22:16;;;;;;;16.50;8.30;;;;;;;3.71;70.61;100668.06;1682915;84;21369;-56
2020/12/24 00:24:44;;;;;;;15.25;8.75;;;;;;;3.62;70.64;100664.77;1697559;84;21145;-55
2020/12/24 00:27:12;;;;;;;15.50;7.92;;;;;;;3.57;70.84;100667.27;1697577;83;21065;-56
2020/12/24 00:29:39;;;;;;;15.15;7.55;;;;;;;3.52;70.82;100661.70;1682900;85;21091;-56
2020/12/24 00:32:07;;;;;;;15.83;8.10;;;;;;;3.48;70.87;100659.94;1697578;83;21094;-55
2020/12/24 00:34:34;;;;;;;18.87;8.60;;;;;;;3.49;71.14;100652.17;1682931;84;22491;-57
2020/12/24 00:37:02;;;;;;;15.32;8.58;;;;;;;3.55;71.10;100655.39;1697565;83;21118;-55
2020/12/24 00:39:30;;;;;;;15.30;7.58;;;;;;;3.57;70.99;100651.13;1682931;85;21459;-57
2020/12/24 00:41:57;;;;;;;14.10;8.15;;;;;;;3.59;70.87;100641.80;1697501;84;21105;-58
2020/12/24 00:44:26;;;;;;;13.50;6.85;;;;;;;3.56;70.90;100636.03;1697605;84;21091;-56
2020/12/24 00:46:54;;;;;;;15.20;7.70;;;;;;;3.54;71.04;100632.70;1682910;84;21348;-56
2020/12/24 00:49:21;;;;;;;12.05;6.12;;;;;;;3.55;71.05;100633.86;1697458;83;21022;-57
2020/12/24 00:51:49;;;;;;;13.68;6.33;;;;;;;3.58;70.92;100642.02;1697558;83;21269;-58
2020/12/24 00:54:17;;;;;;;10.68;7.17;;;;;;;3.57;70.97;100639.02;1682889;85;20940;-57
2020/12/24 00:56:44;;;;;;;12.70;7.60;;;;;;;3.59;70.94;100639.09;1697594;84;21573;-57
2020/12/24 00:59:13;;;;;;;13.95;8.15;;;;;;;3.61;70.99;100641.08;1697515;84;23397;-56
2020/12/24 01:01:41;;;;;;;13.22;7.62;;;;;;;3.62;70.83;100654.84;1692272;83;21126;-55
2020/12/24 01:04:09;;;;;;;11.43;7.22;;;;;;;3.64;70.73;100654.61;1692297;84;20939;-56
2020/12/24 01:06:37;;;;;;;12.88;7.97;;;;;;;3.65;70.72;100660.33;1692263;83;20972;-56
2020/12/24 01:09:05;;;;;;;12.63;6.95;;;;;;;3.64;70.65;100655.95;1692311;83;21064;-56
2020/12/24 01:11:34;;;;;;;11.80;6.60;;;;;;;3.63;70.63;100651.09;1692323;83;21146;-56
2020/12/24 01:14:02;;;;;;;11.60;7.67;;;;;;;3.63;70.67;100652.97;1692202;83;21027;-57
2020/12/24 01:16:30;;;;;;;11.70;6.85;;;;;;;3.63;70.68;100646.23;1692272;83;21161;-56
2020/12/24 01:18:59;;;;;;;12.70;7.58;;;;;;;3.67;70.69;100649.34;1692241;84;20952;-56
2020/12/24 01:21:29;;;;;;;12.00;6.72;;;;;;;3.69;70.58;100652.11;1692300;83;21074;-57
2020/12/24 01:23:57;;;;;;;10.20;6.25;;;;;;;3.70;70.54;100660.52;1692345;84;21123;-59
2020/12/24 01:26:25;;;;;;;9.10;5.47;;;;;;;3.69;70.54;100658.02;1682281;84;21530;-57
2020/12/24 01:28:53;;;;;;;11.08;6.12;;;;;;;3.67;70.50;100658.76;1692252;84;21031;-59
2020/12/24 01:31:21;;;;;;;11.60;5.83;;;;;;;3.64;70.56;100653.27;1692260;84;20955;-58
2020/12/24 01:33:49;;;;;;;10.13;5.80;;;;;;;3.62;70.49;100654.84;1692367;84;21470;-58
2020/12/24 01:36:22;;;;;;;11.05;6.45;;;;;;;3.61;70.50;100645.64;1692267;83;21207;-57
2020/12/24 01:38:52;;;;;;;8.80;5.90;;;;;;;3.60;70.53;100650.72;1692521;84;21153;-58
2020/12/24 01:41:19;;;;;;;10.45;6.20;;;;;;;3.60;70.53;100650.72;1692344;83;22195;-58
2020/12/24 01:43:48;;;;;;;9.48;6.37;;;;;;;3.62;70.56;100649.45;1692228;83;21042;-58
2020/12/24 01:46:18;;;;;;;11.08;6.12;;;;;;;3.63;70.74;100655.66;1682785;84;20963;-58
2020/12/24 01:48:45;;;;;;;8.83;5.60;;;;;;;3.67;70.63;100660.11;1692250;84;21231;-58
2020/12/24 01:51:17;;;;;;;9.90;5.72;;;;;;;3.67;70.61;100658.23;1692228;83;21035;-58
2020/12/24 01:53:45;;;;;;;11.28;6.05;;;;;;;3.68;70.60;100657.72;1657465;86;20961;-58
2020/12/24 01:56:12;;;;;;;10.68;6.20;;;;;;;3.69;70.60;100644.56;1680177;84;21126;-58
2020/12/24 01:58:42;;;;;;;9.50;5.83;;;;;;;3.69;70.63;100648.08;1660168;84;21142;-60
2020/12/24 02:01:10;;;;;;;9.95;6.45;;;;;;;3.70;70.66;100648.89;1695507;84;21216;-60
2020/12/24 02:03:38;;;;;;;11.50;6.87;;;;;;;3.70;70.69;100647.55;1682832;85;20948;-62
2020/12/24 02:06:06;;;;;;;11.70;6.30;;;;;;;3.70;70.73;100647.55;1697525;83;21495;-63
2020/12/24 02:08:34;;;;;;;11.85;7.30;;;;;;;3.71;70.77;100649.23;1697499;83;21125;-60
2020/12/24 02:11:02;;;;;;;11.90;6.85;;;;;;;3.71;70.88;100641.16;1682864;84;21140;-60
2020/12/24 02:14:20;;;;;;;13.70;6.60;;;;;;;3.76;70.79;100642.17;1820160;77;24043;-60
2020/12/24 02:16:48;;;;;;;9.60;5.72;;;;;;;3.71;70.82;100646.02;1756602;81;20996;-60
2020/12/24 02:19:17;;;;;;;10.88;5.62;;;;;;;3.73;70.86;100645.80;1762899;81;22309;-58
2020/12/24 02:21:45;;;;;;;11.05;5.92;;;;;;;3.70;70.81;100645.72;1756621;81;21517;-59
2020/12/24 02:24:12;;;;;;;13.10;6.67;;;;;;;3.66;70.94;100643.14;1766299;81;20977;-58
2020/12/24 02:26:40;;;;;;;12.23;6.53;;;;;;;3.62;71.05;100637.34;1756542;81;20957;-61
2020/12/24 02:29:08;;;;;;;10.78;6.47;;;;;;;3.59;71.14;100636.93;1766272;81;21059;-59
2020/12/24 02:31:36;;;;;;;11.45;7.12;;;;;;;3.57;71.21;100629.61;1756598;81;22241;-58
2020/12/24 02:34:04;;;;;;;14.47;6.85;;;;;;;3.60;71.22;100631.88;1766215;81;20977;-59
2020/12/24 02:36:33;;;;;;;10.75;6.50;;;;;;;3.66;71.24;100632.89;1756661;81;21559;-59
2020/12/24 02:39:01;;;;;;;11.12;5.90;;;;;;;3.69;71.20;100640.00;1766339;81;21586;-58
2020/12/24 02:41:29;;;;;;;11.15;6.60;;;;;;;3.72;71.26;100641.45;1756590;81;21040;-58
2020/12/24 02:43:57;;;;;;;10.78;5.92;;;;;;;3.72;71.20;100631.52;1766236;81;21158;-58
2020/12/24 02:46:24;;;;;;;10.20;6.05;;;;;;;3.75;71.13;100640.52;1756482;81;20945;-59
2020/12/24 02:48:52;;;;;;;9.35;5.05;;;;;;;3.73;71.00;100629.64;1764967;81;21024;-58
2020/12/24 02:51:19;;;;;;;10.45;5.33;;;;;;;3.73;71.02;100631.81;1735870;82;21549;-60
2020/12/24 02:53:47;;;;;;;12.35;5.92;;;;;;;3.73;71.09;100639.89;1735896;81;20924;-59
2020/12/24 02:56:15;;;;;;;13.70;5.72;;;;;;;3.74;71.08;100635.33;1735820;82;21153;-60
2020/12/24 02:58:46;;;;;;;11.40;5.97;;;;;;;3.74;71.07;100639.37;1735855;82;21134;-60
2020/12/24 03:01:13;;;;;;;9.30;5.60;;;;;;;3.74;71.02;100636.67;1735833;82;20944;-61
2020/12/24 03:03:41;;;;;;;11.28;5.28;;;;;;;3.71;71.07;100633.09;1735858;82;21796;-59
2020/12/24 03:06:09;;;;;;;10.28;5.62;;;;;;;3.70;71.05;100643.52;1735944;82;21555;-59
2020/12/24 03:08:37;;;;;;;10.50;6.83;;;;;;;3.71;71.19;100639.29;1735936;82;22264;-60
2020/12/24 03:11:05;;;;;;;8.68;5.85;;;;;;;3.73;71.10;100641.23;1735715;82;22059;-58
2020/12/24 03:13:34;;;;;;;11.25;6.25;;;;;;;3.79;70.97;100639.55;1728393;82;21082;-59
2020/12/24 03:16:02;;;;;;;9.35;5.28;;;;;;;3.80;70.98;100631.78;1719518;83;21041;-59
2020/12/24 03:18:30;;;;;;;9.83;5.67;;;;;;;3.80;70.96;100631.78;1783228;80;20992;-60
2020/12/24 03:20:58;;;;;;;11.15;5.20;;;;;;;3.80;70.87;100629.09;1783303;79;22310;-63
2020/12/24 03:23:25;;;;;;;10.90;5.72;;;;;;;3.77;70.87;100633.05;1783114;80;20893;-59
2020/12/24 03:25:53;;;;;;;9.23;5.00;;;;;;;3.73;70.98;100635.85;1782632;80;21008;-59
2020/12/24 03:28:21;;;;;;;9.83;5.58;;;;;;;3.74;71.08;100632.12;1782673;80;21012;-60
2020/12/24 03:30:49;;;;;;;8.08;4.78;;;;;;;3.74;71.11;100624.05;1782757;80;21435;-58
2020/12/24 03:33:17;;;;;;;11.25;5.50;;;;;;;3.76;71.13;100619.29;1782622;80;21198;-58
2020/12/24 03:35:44;;;;;;;11.53;5.22;;;;;;;3.75;71.12;100619.48;1782638;80;21482;-59
2020/12/24 03:38:12;;;;;;;10.80;5.65;;;;;;;3.74;71.10;100616.49;1782697;80;21531;-58
2020/12/24 03:40:40;;;;;;;10.15;6.83;;;;;;;3.74;71.18;100617.84;1782705;80;20929;-59
2020/12/24 03:43:08;;;;;;;9.78;5.95;;;;;;;3.73;71.22;100615.67;1782709;80;21471;-59
2020/12/24 03:45:36;;;;;;;10.08;5.67;;;;;;;3.77;71.23;100610.17;1782659;80;21404;-60
2020/12/24 03:48:03;;;;;;;10.13;5.85;;;;;;;3.79;71.10;100615.33;1782622;80;20964;-59
2020/12/24 03:50:32;;;;;;;11.63;6.58;;;;;;;3.73;71.17;100609.47;1781442;80;21127;-59
2020/12/24 03:53:00;;;;;;;12.18;6.75;;;;;;;3.70;71.37;100604.00;1782560;80;21601;-58
2020/12/24 03:55:28;;;;;;;11.97;6.87;;;;;;;3.70;71.37;100602.66;1782656;80;21471;-58
2020/12/24 03:57:55;;;;;;;13.53;6.20;;;;;;;3.72;71.36;100607.30;1782630;80;21407;-58
2020/12/24 04:00:24;;;;;;;11.53;6.12;;;;;;;3.78;71.34;100608.30;1782569;79;20941;-59
2020/12/24 04:02:51;;;;;;;11.50;6.78;;;;;;;3.80;71.25;100607.56;1782678;80;20996;-58
2020/12/24 04:05:19;;;;;;;10.90;6.50;;;;;;;3.80;71.22;100599.48;1782555;80;20956;-58
2020/12/24 04:07:51;;;;;;;9.50;6.15;;;;;;;3.81;71.16;100606.02;1782630;80;20928;-57
2020/12/24 04:10:19;;;;;;;12.73;6.03;;;;;;;3.76;71.14;100603.14;1782673;80;21268;-58
2020/12/24 04:12:47;;;;;;;11.00;6.40;;;;;;;3.73;71.21;100596.83;1783249;79;21190;-58
2020/12/24 04:15:15;;;;;;;13.80;6.30;;;;;;;3.74;71.20;100596.31;1791300;79;21463;-58
2020/12/24 04:17:43;;;;;;;9.68;5.78;;;;;;;3.73;71.33;100601.39;1791176;80;20972;-58
2020/12/24 04:20:11;;;;;;;9.53;6.33;;;;;;;3.74;71.38;100594.96;1791275;79;21471;-57
2020/12/24 04:22:40;;;;;;;9.08;6.10;;;;;;;3.76;71.36;100599.11;1791080;80;22165;-58
2020/12/24 04:25:10;;;;;;;13.75;6.85;;;;;;;3.78;71.35;100591.63;1791140;80;20964;-59
2020/12/24 04:27:38;;;;;;;9.25;6.58;;;;;;;3.80;71.36;100596.79;1791213;80;21035;-57
2020/12/24 04:30:07;;;;;;;10.63;6.35;;;;;;;3.84;71.37;100600.71;1791139;80;20947;-59
2020/12/24 04:32:35;;;;;;;11.80;6.70;;;;;;;3.90;71.15;100603.39;1791207;79;21169;-58
2020/12/24 04:35:03;;;;;;;9.30;6.75;;;;;;;3.94;71.08;100599.73;1791208;80;21372;-57
2020/12/24 04:37:30;;;;;;;9.23;6.10;;;;;;;3.93;70.80;100598.08;1791138;79;21023;-58
2020/12/24 04:39:58;;;;;;;9.30;6.10;;;;;;;3.89;70.92;100598.20;1791158;80;20980;-57
2020/12/24 04:42:25;;;;;;;10.50;5.60;;;;;;;3.89;70.88;100586.09;1791241;80;21848;-58
2020/12/24 04:44:53;;;;;;;8.70;6.20;;;;;;;3.89;70.86;100583.39;1791114;78;20917;-55
2020/12/24 04:47:21;;;;;;;6.90;4.92;;;;;;;3.91;70.85;100588.06;1791198;80;22127;-58
2020/12/24 04:49:49;;;;;;;7.47;4.70;;;;;;;3.90;70.78;100587.23;1791067;80;21074;-57
2020/12/24 04:52:16;;;;;;;7.03;4.65;;;;;;;3.88;70.69;100589.30;1791201;80;20924;-56
2020/12/24 04:54:44;;;;;;;8.28;5.03;;;;;;;3.85;70.76;100582.17;1791191;80;20944;-57
2020/12/24 04:57:12;;;;;;;6.15;4.40;;;;;;;3.83;70.74;100581.05;1765038;80;20980;-56
2020/12/24 04:59:40;;;;;;;5.83;4.15;;;;;;;3.77;70.79;100584.60;1791092;79;21626;-57
2020/12/24 05:02:08;;;;;;;6.55;4.47;;;;;;;3.75;70.86;100583.15;1789873;80;21174;-57
2020/12/24 05:04:36;;;;;;;7.80;4.65;;;;;;;3.74;70.96;100584.20;1789939;80;21713;-59
2020/12/24 05:07:06;;;;;;;5.92;4.10;;;;;;;3.74;71.02;100572.09;1790886;80;20916;-57
2020/12/24 05:09:35;;;;;;;7.25;3.85;;;;;;;3.75;71.06;100571.04;1790609;80;21596;-58
2020/12/24 05:12:03;;;;;;;6.17;4.08;;;;;;;3.77;71.06;100564.95;1789964;78;22150;-60
2020/12/24 05:14:31;;;;;;;4.80;3.50;;;;;;;3.74;70.93;100568.05;1784361;79;20999;-58
2020/12/24 05:17:07;;;;;;;5.55;3.72;;;;;;;3.69;71.10;100574.59;1781879;80;20979;-60
2020/12/24 05:19:47;;;;;;;6.22;4.10;;;;;;;3.67;71.24;100577.51;1781876;79;20988;-58
2020/12/24 05:22:21;;;;;;;6.22;3.98;;;;;;;3.71;71.21;100580.61;1780306;80;21095;-57
2020/12/24 05:24:49;;;;;;;4.95;3.83;;;;;;;3.69;71.15;100584.84;1781610;80;21617;-57
2020/12/24 05:27:20;;;;;;;5.45;3.98;;;;;;;3.65;71.26;100578.25;1781531;80;21069;-57
2020/12/24 05:29:51;;;;;;;6.35;4.30;;;;;;;3.68;71.29;100575.64;1782591;80;20937;-58
2020/12/24 05:32:30;;;;;;;5.40;3.45;;;;;;;3.69;71.32;100575.94;1782611;80;21028;-55
2020/12/24 05:35:11;;;;;;;6.70;3.77;;;;;;;3.67;71.41;100576.16;1782630;80;21479;-57
2020/12/24 05:37:39;;;;;;;4.85;3.45;;;;;;;3.73;71.41;100575.83;1782552;80;21364;-57
2020/12/24 05:40:24;;;;;;;6.28;4.08;;;;;;;3.79;71.30;100585.73;1782441;79;20945;-55
2020/12/24 05:42:58;;;;;;;9.15;4.72;;;;;;;3.81;71.22;100585.01;1782610;80;21578;-56
2020/12/24 05:45:29;;;;;;;7.15;4.85;;;;;;;3.82;71.18;100586.13;1782656;79;21004;-58
2020/12/24 05:48:10;;;;;;;7.05;5.05;;;;;;;3.82;71.20;100582.62;1782473;80;21498;-55
2020/12/24 05:50:39;;;;;;;6.17;4.58;;;;;;;3.84;71.13;100589.94;1782539;80;21410;-55
2020/12/24 05:53:14;;;;;;;8.58;5.87;;;;;;;3.85;71.13;100589.75;1782432;80;20960;-56
2020/12/24 05:55:44;;;;;;;7.03;4.87;;;;;;;3.88;71.17;100591.17;1782579;79;20980;-58
2020/12/24 05:58:12;;;;;;;7.78;4.75;;;;;;;3.95;71.06;100593.30;1782574;80;21518;-57
2020/12/24 06:00:41;;;;;;;5.95;4.45;;;;;;;3.99;70.83;100600.43;1782501;80;21163;-57
2020/12/24 06:03:17;;;;;;;8.90;4.78;;;;;;;3.96;70.84;100599.53;1782497;80;21195;-57
2020/12/24 06:06:01;;;;;;;7.17;4.25;;;;;;;3.94;70.84;100609.15;1782521;79;20945;-56
2020/12/24 06:08:33;;;;;;;8.98;5.28;;;;;;;3.90;70.86;100604.73;1782528;80;20945;-58
2020/12/24 06:11:08;;;;;;;7.75;5.47;;;;;;;3.88;71.02;100604.62;1782470;80;20996;-63
2020/12/24 06:13:44;;;;;;;8.93;5.45;;;;;;;3.87;71.02;100605.68;1783949;79;21648;-58
2020/12/24 06:16:13;;;;;;;8.00;5.00;;;;;;;3.87;71.17;100596.26;1790682;80;21407;-61
2020/12/24 06:18:47;;;;;;;8.28;5.40;;;;;;;3.92;71.16;100591.58;1780267;79;20979;-63
2020/12/24 06:21:20;;;;;;;7.37;4.55;;;;;;;3.88;71.12;100584.44;1759948;80;20948;-63
2020/12/24 06:23:51;;;;;;;7.17;4.25;;;;;;;3.86;71.11;100581.16;1737555;80;22106;-64
2020/12/24 06:26:28;;;;;;;6.65;4.42;;;;;;;3.81;71.15;100578.28;1773743;79;21113;-65
2020/12/24 06:29:02;;;;;;;7.25;4.50;;;;;;;3.78;71.15;100581.39;1764208;80;22286;-64
2020/12/24 06:31:31;;;;;;;6.28;4.47;;;;;;;3.75;71.11;100577.77;1759780;81;21081;-62
2020/12/24 06:33:58;;;;;;;10.15;5.95;;;;;;;3.76;71.19;100573.54;1744758;81;21097;-59
2020/12/24 06:36:32;;;;;;;7.92;4.95;;;;;;;3.80;71.13;100581.98;1758721;80;22238;-57
2020/12/24 06:39:00;;;;;;;9.40;5.22;;;;;;;3.79;71.14;100580.34;1758339;81;21176;-57
2020/12/24 06:41:31;;;;;;;8.55;5.30;;;;;;;3.79;71.14;100577.13;1758702;80;21908;-60
2020/12/24 06:43:59;;;;;;;9.85;5.95;;;;;;;3.77;71.09;100575.70;1758159;81;21065;-57
2020/12/24 06:46:28;;;;;;;9.03;5.33;;;;;;;3.72;71.23;100575.00;1758781;80;21054;-60
2020/12/24 06:49:02;;;;;;;8.10;6.10;;;;;;;3.69;71.32;100570.03;1759421;81;21184;-58
2020/12/24 06:51:51;;;;;;;9.23;6.67;;;;;;;3.66;71.39;100565.10;1759700;80;21038;-59
2020/12/24 06:54:26;;;;;;;9.85;6.17;;;;;;;3.62;71.46;100561.19;1758790;80;21448;-56
2020/12/24 06:57:25;;;;;;;;;;;;;;;3.59;71.67;100556.22;1762456;80;21073;-58
2020/12/24 07:00:19;;;;;;;11.35;6.95;;;;;;;3.61;71.81;100564.92;1759996;81;20147;-59
2020/12/24 07:02:51;;;;;;;11.73;6.80;;;;;;;3.68;71.86;100563.53;1760044;80;21175;-58
2020/12/24 07:05:44;;;;;;;12.05;8.20;;;;;;;3.72;71.61;100572.83;1760037;80;21144;-58
2020/12/24 07:08:28;;;;;;;12.18;7.55;;;;;;;3.70;71.68;100569.52;1759896;81;22279;-58
2020/12/24 07:11:04;;;;;;;11.60;7.10;;;;;;;3.70;71.67;100563.64;1889949;75;22838;-57
2020/12/24 07:13:35;;;;;;;13.80;7.85;;;;;;;3.63;71.85;100563.65;1859987;77;21042;-58
2020/12/24 07:16:12;;;;;;;11.93;7.67;;;;;;;3.66;71.81;100557.55;1860131;77;21505;-59
2020/12/24 07:18:40;;;;;;;14.90;8.65;;;;;;;3.67;71.89;100556.50;1860761;77;20915;-57
2020/12/24 07:21:10;;;;;;;12.60;8.05;;;;;;;3.72;71.91;100555.34;1848307;77;20981;-59
2020/12/24 07:23:40;;;;;;;11.90;7.37;;;;;;;3.75;71.91;100561.63;1849951;76;21061;-61
2020/12/24 07:26:11;;;;;;;10.82;6.55;;;;;;;3.76;71.78;100556.57;1861711;77;21532;-59
2020/12/24 07:28:41;;;;;;;9.18;5.90;;;;;;;3.73;71.75;100555.64;1860417;76;22254;-58
2020/12/24 07:31:10;;;;;;;12.07;6.70;;;;;;;3.69;71.80;100552.55;1869193;76;21569;-59
2020/12/24 07:33:45;;;;;;;9.73;5.37;;;;;;;3.66;71.82;100559.72;1871861;76;20987;-58
2020/12/24 07:36:12;;;;;;;11.38;7.15;;;;;;;3.61;71.87;100555.50;1867315;76;21469;-59
2020/12/24 07:38:40;;;;;;;10.82;5.25;;;;;;;3.61;71.99;100549.59;1859372;76;21148;-56
2020/12/24 07:41:16;;;;;;;15.43;7.20;;;;;;;3.64;72.06;100551.02;1862596;76;21810;-58
2020/12/24 07:43:44;;;;;;;11.90;7.33;;;;;;;3.63;72.00;100548.03;1864316;76;21094;-58
2020/12/24 07:46:12;;;;;;;10.95;6.80;;;;;;;3.61;72.13;100550.94;1871922;76;21146;-59
2020/12/24 07:48:40;;;;;;;13.43;6.78;;;;;;;3.68;72.12;100558.15;1869425;76;21039;-58
2020/12/24 07:51:08;;;;;;;9.43;5.58;;;;;;;3.69;72.05;100553.06;1828661;77;21105;-63
2020/12/24 07:53:35;;;;;;;12.93;7.12;;;;;;;3.71;72.07;100554.52;1827043;78;21202;-59
2020/12/24 07:56:08;;;;;;;9.23;5.25;;;;;;;3.71;71.97;100551.83;1830135;78;21554;-59
2020/12/24 07:58:37;;;;;;;10.08;5.80;;;;;;;3.77;71.90;100556.87;1829834;78;21538;-60
2020/12/24 08:01:05;;;;;;;6.28;4.50;;;;;;;3.80;71.84;100560.45;1829905;77;21621;-59
2020/12/24 08:03:33;;;;;;;9.33;5.58;;;;;;;3.80;71.73;100555.08;1837089;78;20914;-62
2020/12/24 08:06:06;;;;;;;8.63;5.00;;;;;;;3.83;71.78;100555.48;1837912;77;21144;-60
2020/12/24 08:08:36;;;;;;;6.53;4.08;;;;;;;3.86;71.52;100554.23;1837486;78;21565;-58
2020/12/24 08:11:07;;;;;;;6.37;4.53;;;;;;;3.86;71.25;100552.36;1829362;78;21139;-54
2020/12/24 08:13:35;;;;;;;6.35;4.17;;;;;;;3.86;71.17;100554.23;1829603;78;21581;-58
2020/12/24 08:16:03;;;;;;;9.68;5.58;;;;;;;3.88;71.01;100557.52;1829126;78;21154;-57
2020/12/24 08:18:37;;;;;;;9.30;4.78;;;;;;;3.86;70.92;100555.06;1784929;79;21569;-56
2020/12/24 08:21:23;;;;;;;7.83;5.12;;;;;;;3.81;70.86;100553.53;1822945;78;21025;-56
2020/12/24 08:23:59;;;;;;;6.12;3.98;;;;;;;3.80;70.98;100545.66;1824706;78;21171;-57
2020/12/24 08:26:27;;;;;;;8.68;5.08;;;;;;;3.79;71.03;100550.73;1831119;78;21573;-60
2020/12/24 08:28:56;;;;;;;7.60;5.33;;;;;;;3.78;70.93;100548.57;1827209;77;21585;-61
2020/12/24 08:31:26;;;;;;;8.60;5.17;;;;;;;3.78;70.95;100544.53;1825332;78;21348;-59
2020/12/24 08:33:54;;;;;;;9.33;5.22;;;;;;;3.78;71.05;100550.44;1829500;78;21121;-59
2020/12/24 08:36:28;;;;;;;4.95;3.55;;;;;;;3.82;71.01;100559.22;1836813;78;21090;-60
2020/12/24 08:39:06;;;;;;;3.92;2.98;;;;;;;3.83;70.73;100558.69;1835005;78;21149;-60
2020/12/24 08:41:38;;;;;;;4.25;3.00;;;;;;;3.75;70.66;100561.63;1825926;78;21019;-61
2020/12/24 08:44:06;;;;;;;4.58;3.22;;;;;;;3.73;70.74;100561.84;1794878;78;21274;-59
2020/12/24 08:46:35;;;;;;;5.87;3.67;;;;;;;3.73;70.79;100548.91;1794557;77;21177;-57
2020/12/24 08:49:25;;;;;;;3.47;2.60;;;;;;;3.73;70.85;100542.19;1825802;77;21552;-57
2020/12/24 08:52:22;;;;;;;4.92;3.42;;;;;;;3.76;70.73;100542.59;1825114;78;21166;-56
2020/12/24 08:55:01;;;;;;;5.87;4.15;;;;;;;3.75;70.81;100538.25;1773398;78;21131;-57
2020/12/24 08:57:31;;;;;;;8.78;4.50;;;;;;;3.77;70.77;100528.09;1809902;77;21373;-57
2020/12/24 09:00:01;;;;;;;5.67;3.90;;;;;;;3.80;70.74;100526.32;1795667;79;21011;-58
2020/12/24 09:02:32;;;;;;;3.25;2.05;;;;;;;3.77;70.78;100524.05;1807939;78;21037;-55
2020/12/24 09:05:03;;;;;;;4.00;2.47;;;;;;;3.76;70.70;100511.64;1813952;79;21076;-57
2020/12/24 09:07:36;;;;;;;4.35;2.85;;;;;;;3.69;70.77;100508.14;1784671;78;21218;-60
2020/12/24 09:10:08;;;;;;;5.47;3.02;;;;;;;3.64;70.83;100502.59;1817074;78;21365;-59
2020/12/24 09:12:39;;;;;;;4.65;2.60;;;;;;;3.59;71.17;100491.13;1822372;78;21188;-61
2020/12/24 09:15:13;;;;;;;5.55;2.10;;;;;;;3.61;71.36;100480.17;1824052;78;21092;-57
2020/12/24 09:17:52;;;;;;;3.95;2.10;;;;;;;3.64;71.14;100483.75;1826871;78;21014;-58
2020/12/24 09:20:29;;;;;;;4.17;2.05;;;;;;;3.61;70.91;100472.91;1816525;78;21179;-57
2020/12/24 09:23:02;;;;;;;7.03;3.80;;;;;;;3.56;71.13;100459.29;1821530;78;21456;-59
2020/12/24 09:25:38;;;;;;;8.93;5.00;;;;;;;3.62;71.32;100468.36;1823038;78;21064;-61
2020/12/24 09:28:08;;;;;;;;;;;;;;;3.62;71.45;100460.28;1825265;77;21200;-60
2020/12/24 09:30:36;;;;;;;12.00;5.45;;;;;;;3.65;71.50;100462.55;1822150;78;20239;-58
2020/12/24 09:33:04;;;;;;;10.35;5.42;;;;;;;3.69;71.61;100461.58;1821411;78;21080;-60
2020/12/24 09:35:32;;;;;;;17.77;6.87;;;;;;;3.72;71.54;100460.63;1834806;78;21767;-58
2020/12/24 09:38:00;;;;;;;9.08;5.55;;;;;;;3.72;71.62;100452.56;1823653;78;21018;-59
2020/12/24 09:40:29;;;;;;;13.68;7.37;;;;;;;3.77;71.60;100452.73;1827976;78;21090;-62
2020/12/24 09:42:58;;;;;;;14.33;6.85;;;;;;;3.82;71.42;100458.28;1825917;78;21036;-58
2020/12/24 09:45:28;;;;;;;11.05;6.10;;;;;;;3.80;71.40;100459.53;1826226;78;21112;-59
2020/12/24 09:47:57;;;;;;;14.55;7.15;;;;;;;3.80;71.46;100463.08;1801156;78;21368;-57
2020/12/24 09:50:25;;;;;;;14.15;7.22;;;;;;;3.76;71.33;100457.00;1797928;78;21592;-57
2020/12/24 09:52:53;;;;;;;14.43;6.60;;;;;;;3.74;71.37;100453.68;1821922;78;21205;-62
2020/12/24 09:55:31;;;;;;;12.07;6.67;;;;;;;3.70;71.37;100455.15;1823636;78;21165;-58
2020/12/24 09:57:59;;;;;;;20.15;7.87;;;;;;;3.68;71.50;100450.00;1821047;78;21120;-57
2020/12/24 10:00:28;;;;;;;11.18;6.72;;;;;;;3.63;71.39;100460.58;1823957;78;21360;-59
2020/12/24 10:02:56;;;;;;;20.45;7.70;;;;;;;3.58;71.55;100446.95;1822437;78;21167;-57
2020/12/24 10:05:24;;;;;;;14.45;7.62;;;;;;;3.51;71.66;100445.66;1813239;78;21151;-57
2020/12/24 10:07:51;;;;;;;15.10;8.90;;;;;;;3.49;71.85;100438.31;1836867;78;20997;-60
2020/12/24 10:10:25;;;;;;;15.45;7.15;;;;;;;3.49;71.89;100436.97;1821391;78;21160;-58
2020/12/24 10:12:53;;;;;;;12.75;6.55;;;;;;;3.45;71.88;100429.54;1827725;78;21384;-60
2020/12/24 10:15:21;;;;;;;16.42;7.00;;;;;;;3.39;72.20;100428.02;1821679;77;21194;-59
2020/12/24 10:17:50;;;;;;;13.50;7.45;;;;;;;3.41;72.21;100429.70;1823623;78;21749;-59
2020/12/24 10:20:17;;;;;;;14.65;6.72;;;;;;;3.43;72.21;100423.05;1811955;78;21253;-60
2020/12/24 10:22:45;;;;;;;9.38;5.97;;;;;;;3.48;72.14;100420.53;1768182;77;21139;-58
2020/12/24 10:25:13;;;;;;;13.60;7.03;;;;;;;3.52;71.93;100417.72;1821867;78;21267;-57
2020/12/24 10:27:41;;;;;;;18.40;7.00;;;;;;;3.50;71.87;100421.16;1829514;78;20985;-61
2020/12/24 10:30:09;;;;;;;16.05;8.05;;;;;;;3.49;71.92;100411.94;1808230;78;21147;-56
2020/12/24 10:32:40;;;;;;;17.65;8.45;;;;;;;3.48;71.93;100404.91;1825636;78;21028;-60
2020/12/24 10:35:07;;;;;;;12.95;6.33;;;;;;;3.48;71.98;100395.50;1825710;78;21217;-57
2020/12/24 10:37:35;;;;;;;10.03;6.08;;;;;;;3.48;71.95;100390.12;1825662;78;21362;-60
2020/12/24 10:40:05;;;;;;;9.13;5.05;;;;;;;3.45;71.85;100391.88;1826993;78;21140;-59
2020/12/24 10:42:34;;;;;;;12.60;6.80;;;;;;;3.29;71.90;100377.92;1756036;78;21109;-60
2020/12/24 10:45:02;;;;;;;14.90;8.35;;;;;;;3.29;72.15;100386.51;1825645;78;21124;-58
2020/12/24 10:47:31;;;;;;;11.43;6.97;;;;;;;3.39;72.23;100376.09;1824911;78;21191;-59
2020/12/24 10:49:59;;;;;;;11.75;7.35;;;;;;;3.48;72.15;100373.98;1825047;78;22083;-60
2020/12/24 10:52:29;;;;;;;12.68;7.72;;;;;;;3.57;72.05;100374.84;1825669;78;21211;-58
2020/12/24 10:54:59;;;;;;;14.00;7.53;;;;;;;3.64;71.81;100368.05;1822514;78;21084;-60
2020/12/24 10:57:28;;;;;;;12.33;7.03;;;;;;;3.63;71.45;100377.17;1821659;78;21664;-58
2020/12/24 10:59:56;;;;;;;10.88;6.15;;;;;;;3.55;71.31;100373.43;1822871;78;21184;-60
2020/12/24 11:02:25;;;;;;;12.82;7.20;;;;;;;3.52;71.42;100363.91;1823105;78;22273;-59
2020/12/24 11:04:53;;;;;;;14.18;7.50;;;;;;;3.51;71.37;100351.51;1822747;78;21733;-59
2020/12/24 11:07:22;;;;;;;17.98;8.43;;;;;;;3.48;71.40;100347.90;1821471;78;21581;-61
2020/12/24 11:09:50;;;;;;;13.38;7.70;;;;;;;3.46;71.40;100339.23;1818699;78;21565;-61
2020/12/24 11:12:18;;;;;;;14.33;7.97;;;;;;;3.46;71.46;100339.23;1798806;78;21585;-59
2020/12/24 11:14:46;;;;;;;10.50;6.30;;;;;;;3.50;71.39;100339.63;1827441;78;21263;-63
2020/12/24 11:17:15;;;;;;;11.93;6.90;;;;;;;3.52;71.34;100331.63;1799240;78;21222;-59
2020/12/24 11:19:47;;;;;;;10.05;6.55;;;;;;;3.47;71.22;100326.61;1819156;78;21030;-60
2020/12/24 11:22:22;;;;;;;8.65;6.10;;;;;;;3.39;71.28;100327.69;1815118;79;21172;-59
2020/12/24 11:24:51;;;;;;;10.40;6.20;;;;;;;3.32;71.46;100322.89;1762002;79;21075;-61
2020/12/24 11:27:18;;;;;;;9.78;6.78;;;;;;;3.26;71.65;100311.67;1830573;78;21271;-60
2020/12/24 11:29:47;;;;;;;12.37;8.13;;;;;;;3.23;71.81;100309.40;1829730;78;21272;-60
2020/12/24 11:32:15;;;;;;;10.05;6.22;;;;;;;3.21;72.01;100312.84;1826102;78;21138;-61
2020/12/24 11:34:44;;;;;;;9.93;6.37;;;;;;;3.24;72.06;100305.14;1826199;78;20944;-62
2020/12/24 11:37:12;;;;;;;10.00;6.58;;;;;;;3.25;71.98;100306.81;1825974;78;21010;-65
2020/12/24 11:39:43;;;;;;;10.48;7.00;;;;;;;3.18;72.06;100306.55;1825947;78;21134;-63
2020/12/24 11:42:13;;;;;;;11.83;6.20;;;;;;;3.16;72.18;100302.73;1827621;78;21148;-59